Time;durP1;ratioP1;P1;durP2;ratioP2;P2;SDS_P1;SDS_P2;PMS_P1;PMS_P2;Temp;Humidity;BMP_temperature;BMP_pressure;BME280_temperature;BME280_humidity;BME280_pressure;Samples;Min_cycle;Max_cycle;Signal;HPM_P1;HPM_P2
2023/01/28 00:01:11;;;;;;;12.23;11.40;;;5.60;24.80;;;;;;5107198;28;20423;-77
2023/01/28 00:03:38;;;;;;;11.77;11.07;;;5.60;24.80;;;;;;5109333;28;20424;-75
2023/01/28 00:06:06;;;;;;;12.17;11.47;;;5.60;24.50;;;;;;5114276;28;20409;-75
2023/01/28 00:08:32;;;;;;;11.40;10.80;;;5.70;24.70;;;;;;5113218;28;20437;-75
2023/01/28 00:10:59;;;;;;;12.43;11.73;;;5.70;24.80;;;;;;5113379;28;20416;-74
2023/01/28 00:13:25;;;;;;;12.10;11.40;;;5.70;24.70;;;;;;5108234;28;20440;-76
2023/01/28 00:15:59;;;;;;;13.47;12.47;;;5.80;24.60;;;;;;5102446;28;20456;-76
2023/01/28 00:18:26;;;;;;;11.33;10.63;;;5.70;24.50;;;;;;5102941;28;20444;-77
2023/01/28 00:21:12;;;;;;;11.50;10.90;;;5.70;24.80;;;;;;5093217;28;20409;-77
2023/01/28 00:23:40;;;;;;;12.20;11.50;;;5.60;24.40;;;;;;5091805;28;20824;-77
2023/01/28 00:26:09;;;;;;;12.10;11.30;;;5.60;24.60;;;;;;5091117;28;20439;-76
2023/01/28 00:28:35;;;;;;;12.73;11.87;;;5.60;25.00;;;;;;5091109;28;20404;-77
2023/01/28 00:31:13;;;;;;;11.37;10.77;;;5.60;25.00;;;;;;5090381;28;20420;-77
2023/01/28 00:33:39;;;;;;;11.17;10.53;;;5.60;24.50;;;;;;5091233;28;20836;-77
2023/01/28 00:36:05;;;;;;;11.30;10.70;;;5.60;24.60;;;;;;5089024;28;20510;-77
2023/01/28 00:38:31;;;;;;;11.40;10.70;;;5.70;24.70;;;;;;5089586;28;20179;-77
2023/01/28 00:41:10;;;;;;;11.57;10.97;;;5.70;24.70;;;;;;5090747;28;20519;-77
2023/01/28 00:43:37;;;;;;;10.83;10.23;;;5.80;24.40;;;;;;5090892;28;20507;-77
2023/01/28 00:46:03;;;;;;;11.57;10.87;;;5.80;24.70;;;;;;5092112;28;20503;-77
2023/01/28 00:48:29;;;;;;;11.00;10.40;;;5.90;24.40;;;;;;5090330;28;20417;-77
2023/01/28 00:50:55;;;;;;;11.83;11.17;;;5.90;24.50;;;;;;5092749;28;20503;-77
2023/01/28 00:53:21;;;;;;;10.60;10.00;;;5.90;24.60;;;;;;5093085;28;20178;-77
2023/01/28 00:55:47;;;;;;;11.40;10.80;;;5.90;24.30;;;;;;5093058;28;20470;-77
2023/01/28 00:58:12;;;;;;;11.63;10.93;;;5.80;24.40;;;;;;5092951;28;20247;-76
2023/01/28 01:00:38;;;;;;;11.30;10.60;;;5.90;24.50;;;;;;5094897;28;20645;-77
2023/01/28 01:03:03;;;;;;;10.70;10.07;;;5.90;24.40;;;;;;5103369;28;20174;-76
2023/01/28 01:05:29;;;;;;;11.10;10.40;;;5.90;24.40;;;;;;5102347;28;20198;-76
2023/01/28 01:07:54;;;;;;;11.13;10.43;;;5.70;24.50;;;;;;5102655;28;20194;-77
2023/01/28 01:10:20;;;;;;;12.00;11.20;;;5.70;25.20;;;;;;5098865;28;20171;-76
2023/01/28 01:12:47;;;;;;;11.17;10.50;;;5.70;24.90;;;;;;5091544;28;20179;-77
2023/01/28 01:15:13;;;;;;;10.43;9.87;;;5.50;25.60;;;;;;5092286;28;20202;-77
2023/01/28 01:17:45;;;;;;;10.60;9.83;;;5.50;25.80;;;;;;5091997;28;21125;-77
2023/01/28 01:20:20;;;;;;;11.43;10.83;;;5.50;25.60;;;;;;5090237;28;20792;-77
2023/01/28 01:22:46;;;;;;;10.20;9.70;;;5.40;25.80;;;;;;5091840;28;20518;-76
2023/01/28 01:25:13;;;;;;;10.83;10.23;;;5.50;25.60;;;;;;5089152;28;20860;-77
2023/01/28 01:27:39;;;;;;;11.13;10.53;;;5.60;25.40;;;;;;5089901;28;20206;-77
2023/01/28 01:30:06;;;;;;;11.13;10.53;;;5.40;26.00;;;;;;5090408;28;20412;-77
2023/01/28 01:32:33;;;;;;;11.93;11.23;;;5.50;25.60;;;;;;5088093;28;20223;-75
2023/01/28 01:34:59;;;;;;;11.97;11.17;;;5.60;25.60;;;;;;5088364;28;20864;-76
2023/01/28 01:37:25;;;;;;;10.77;10.17;;;5.70;25.20;;;;;;5089824;28;20420;-76
2023/01/28 01:39:50;;;;;;;10.97;10.17;;;5.70;25.00;;;;;;5089363;28;20182;-77
2023/01/28 01:42:16;;;;;;;10.63;10.10;;;5.80;25.10;;;;;;5088509;28;20178;-76
2023/01/28 01:45:07;;;;;;;10.50;9.90;;;5.80;24.90;;;;;;5088101;28;20265;-77
2023/01/28 01:47:50;;;;;;;10.27;9.67;;;5.80;24.70;;;;;;5089959;28;20198;-77
2023/01/28 01:50:36;;;;;;;11.10;10.50;;;5.80;24.80;;;;;;5090701;28;20415;-76
2023/01/28 01:53:15;;;;;;;11.90;11.20;;;5.90;25.30;;;;;;5089035;28;20415;-77
2023/01/28 01:55:44;;;;;;;10.87;10.33;;;5.80;24.90;;;;;;5089561;28;20460;-77
2023/01/28 01:58:13;;;;;;;11.10;10.50;;;5.70;25.10;;;;;;5088704;28;21001;-77
2023/01/28 02:00:40;;;;;;;11.40;10.70;;;5.70;25.30;;;;;;5089445;28;20756;-77
2023/01/28 02:03:06;;;;;;;13.00;12.20;;;5.70;25.30;;;;;;5089056;28;20759;-77
2023/01/28 02:05:31;;;;;;;12.00;11.10;;;5.70;25.30;;;;;;5090180;28;20409;-76
2023/01/28 02:08:19;;;;;;;11.80;11.13;;;5.70;25.30;;;;;;5089148;28;20195;-76
2023/01/28 02:10:45;;;;;;;11.57;10.97;;;5.70;25.30;;;;;;5089220;28;20273;-76
2023/01/28 02:13:11;;;;;;;11.57;10.87;;;5.80;25.30;;;;;;5088853;28;20466;-76
2023/01/28 02:15:37;;;;;;;11.80;11.10;;;5.80;25.30;;;;;;5087692;28;20457;-76
2023/01/28 02:18:03;;;;;;;12.40;11.80;;;5.90;25.10;;;;;;5088499;28;20436;-76
2023/01/28 02:20:58;;;;;;;10.50;9.90;;;5.90;25.40;;;;;;5088627;28;20404;-76
2023/01/28 02:23:32;;;;;;;11.17;10.57;;;5.90;25.20;;;;;;5088353;28;20182;-76
2023/01/28 02:26:16;;;;;;;11.17;10.57;;;5.90;25.00;;;;;;5087765;28;20414;-76
2023/01/28 02:29:07;;;;;;;11.07;10.47;;;5.80;25.30;;;;;;5087643;28;20754;-76
2023/01/28 02:31:43;;;;;;;11.10;10.60;;;5.80;25.50;;;;;;5090068;28;20944;-76
2023/01/28 02:34:32;;;;;;;12.00;11.40;;;5.90;25.40;;;;;;5092622;28;20412;-77
2023/01/28 02:37:08;;;;;;;11.90;11.20;;;5.90;25.20;;;;;;5091195;28;20443;-77
2023/01/28 02:39:39;;;;;;;10.67;10.07;;;5.80;25.30;;;;;;5093665;28;20400;-77
2023/01/28 02:42:28;;;;;;;11.03;10.43;;;5.80;25.30;;;;;;5092435;28;20417;-77
2023/01/28 02:44:53;;;;;;;10.83;10.30;;;5.80;25.40;;;;;;5091749;28;20421;-77
2023/01/28 02:50:07;;;;;;;10.70;10.20;;;5.80;25.30;;;;;;5093801;28;20166;-77
2023/01/28 02:56:01;;;;;;;10.73;10.13;;;5.80;25.40;;;;;;5093764;28;20886;-77
2023/01/28 02:58:38;;;;;;;10.33;9.83;;;5.70;25.50;;;;;;5092413;28;20404;-77
2023/01/28 03:01:22;;;;;;;10.63;10.03;;;5.70;25.80;;;;;;5093313;28;20415;-75
2023/01/28 03:04:09;;;;;;;11.33;10.70;;;5.70;26.40;;;;;;5092960;28;20404;-77
2023/01/28 03:06:40;;;;;;;11.30;10.70;;;5.80;25.80;;;;;;5093220;28;20523;-77
2023/01/28 03:09:21;;;;;;;11.60;11.00;;;5.80;25.60;;;;;;5092067;28;20397;-77
2023/01/28 03:38:55;;;;;;;13.50;12.70;;;5.70;27.80;;;;;;5092786;28;20412;-77
2023/01/28 03:41:23;;;;;;;12.70;12.00;;;5.60;28.00;;;;;;5094013;28;20401;-76
2023/01/28 03:43:50;;;;;;;12.50;11.80;;;5.70;27.80;;;;;;5095702;28;20861;-78
2023/01/28 03:46:17;;;;;;;13.87;13.17;;;5.70;27.90;;;;;;5095994;28;20975;-76
2023/01/28 03:48:42;;;;;;;12.90;12.20;;;5.70;28.10;;;;;;5097874;28;20409;-78
2023/01/28 03:51:08;;;;;;;12.90;12.20;;;5.70;28.10;;;;;;5094003;28;20436;-75
2023/01/28 03:53:34;;;;;;;13.40;12.60;;;5.70;28.00;;;;;;5092406;28;20273;-74
2023/01/28 03:55:59;;;;;;;13.17;12.47;;;5.50;29.10;;;;;;5091228;28;20187;-77
2023/01/28 03:58:45;;;;;;;13.80;13.10;;;5.50;29.10;;;;;;5096739;28;20190;-76
2023/01/28 04:01:11;;;;;;;12.53;11.83;;;5.50;29.10;;;;;;5095536;28;20194;-76
2023/01/28 04:03:37;;;;;;;14.23;13.33;;;5.60;29.20;;;;;;5095434;28;20413;-77
2023/01/28 04:06:08;;;;;;;14.23;13.40;;;5.70;28.80;;;;;;5091226;28;20409;-76
2023/01/28 04:08:34;;;;;;;13.50;12.70;;;5.70;28.60;;;;;;5090517;28;20424;-77
2023/01/28 04:11:14;;;;;;;15.83;14.93;;;5.70;28.80;;;;;;5091476;28;20420;-77
2023/01/28 04:13:44;;;;;;;14.27;13.43;;;5.80;28.60;;;;;;5091160;28;20416;-77
2023/01/28 04:16:15;;;;;;;15.90;14.97;;;5.80;28.70;;;;;;5091704;28;20456;-77
2023/01/28 04:18:40;;;;;;;14.93;14.13;;;5.80;28.40;;;;;;5090474;28;20919;-76
2023/01/28 04:21:06;;;;;;;14.33;13.43;;;5.80;28.20;;;;;;5091126;28;20514;-75
2023/01/28 04:23:32;;;;;;;14.73;13.83;;;5.80;28.10;;;;;;5092042;28;20444;-77
2023/01/28 04:25:57;;;;;;;15.00;14.00;;;5.80;28.50;;;;;;5091878;28;20216;-76
2023/01/28 04:28:23;;;;;;;15.10;14.20;;;5.80;28.30;;;;;;5091712;28;20195;-76
2023/01/28 04:30:48;;;;;;;13.37;12.57;;;5.80;28.30;;;;;;5091267;28;20596;-77
2023/01/28 04:33:14;;;;;;;15.40;14.40;;;5.80;28.30;;;;;;5091028;28;20533;-77
2023/01/28 04:35:40;;;;;;;14.50;13.70;;;5.70;28.50;;;;;;5091333;28;20250;-77
2023/01/28 04:38:05;;;;;;;15.20;14.40;;;5.70;28.50;;;;;;5091039;28;20194;-76
2023/01/28 04:40:31;;;;;;;15.43;14.50;;;5.70;28.50;;;;;;5091027;28;20239;-76
2023/01/28 04:42:57;;;;;;;14.00;13.20;;;5.80;28.60;;;;;;5089475;28;20178;-76
2023/01/28 04:45:23;;;;;;;15.07;14.23;;;5.90;28.50;;;;;;5091740;28;20179;-77
2023/01/28 04:47:49;;;;;;;15.27;14.20;;;6.00;28.30;;;;;;5091378;28;20432;-77
2023/01/28 04:50:15;;;;;;;14.13;13.33;;;6.10;28.10;;;;;;5091335;28;20538;-77
2023/01/28 04:52:41;;;;;;;14.83;13.93;;;6.20;28.10;;;;;;5089426;28;20844;-77
2023/01/28 04:55:07;;;;;;;14.43;13.63;;;6.30;27.70;;;;;;5089779;28;20468;-77
2023/01/28 04:57:32;;;;;;;13.67;12.87;;;6.40;27.50;;;;;;5090560;28;20195;-77
2023/01/28 04:59:58;;;;;;;15.47;14.57;;;6.50;27.10;;;;;;5090437;28;20424;-76
2023/01/28 05:02:23;;;;;;;14.20;13.30;;;6.40;26.70;;;;;;5089543;28;20167;-76
2023/01/28 05:04:49;;;;;;;15.20;14.30;;;6.10;28.30;;;;;;5088933;28;20175;-77
2023/01/28 05:07:15;;;;;;;13.97;13.17;;;6.20;28.10;;;;;;5089175;28;20301;-77
2023/01/28 05:09:40;;;;;;;14.83;14.03;;;6.30;27.80;;;;;;5091691;28;20252;-76
2023/01/28 05:12:06;;;;;;;13.87;12.97;;;6.40;27.30;;;;;;5090520;28;20174;-77
2023/01/28 05:14:31;;;;;;;14.23;13.33;;;6.40;27.10;;;;;;5088791;28;20302;-76
2023/01/28 05:16:57;;;;;;;15.03;14.00;;;6.40;27.30;;;;;;5090212;28;20197;-76
2023/01/28 05:19:23;;;;;;;14.70;13.80;;;6.50;27.10;;;;;;5089818;28;20166;-76
2023/01/28 05:21:48;;;;;;;13.90;13.00;;;6.50;26.90;;;;;;5090548;28;20224;-77
2023/01/28 05:24:14;;;;;;;14.00;13.20;;;6.40;27.40;;;;;;5090343;28;20212;-77
2023/01/28 05:26:40;;;;;;;14.07;13.17;;;6.50;27.50;;;;;;5089528;28;20200;-77
2023/01/28 05:29:06;;;;;;;13.60;12.80;;;6.50;27.30;;;;;;5090395;28;20416;-77
2023/01/28 05:31:32;;;;;;;14.30;13.40;;;6.60;27.00;;;;;;5091048;28;20421;-78
2023/01/28 05:33:59;;;;;;;13.47;12.77;;;6.70;27.00;;;;;;5093660;28;20405;-80
2023/01/28 05:36:25;;;;;;;14.67;13.77;;;6.60;26.90;;;;;;5092579;28;20302;-76
2023/01/28 05:38:50;;;;;;;13.83;13.03;;;6.60;26.80;;;;;;5090369;28;20838;-77
2023/01/28 05:41:17;;;;;;;13.10;12.30;;;6.60;26.80;;;;;;5091753;28;20547;-77
2023/01/28 05:43:42;;;;;;;13.67;12.90;;;6.30;27.50;;;;;;5108330;28;20186;-74
2023/01/28 05:46:08;;;;;;;13.87;13.07;;;6.00;28.20;;;;;;5115090;28;20434;-75
2023/01/28 05:48:33;;;;;;;14.07;13.30;;;5.80;29.00;;;;;;5115316;28;20171;-76
2023/01/28 05:50:59;;;;;;;14.30;13.50;;;5.90;28.90;;;;;;5114891;28;20174;-75
2023/01/28 05:53:24;;;;;;;14.00;13.20;;;6.00;28.60;;;;;;5104229;28;20684;-77
2023/01/28 05:55:52;;;;;;;13.30;12.60;;;6.10;28.70;;;;;;5092956;28;20683;-79
2023/01/28 05:58:18;;;;;;;13.23;12.53;;;6.20;28.20;;;;;;5093779;28;20267;-77
2023/01/28 06:00:44;;;;;;;13.63;12.87;;;6.20;28.30;;;;;;5090537;28;21142;-77
2023/01/28 06:03:10;;;;;;;14.73;13.93;;;6.20;28.00;;;;;;5090407;28;20416;-77
2023/01/28 06:05:35;;;;;;;14.47;13.57;;;6.20;28.30;;;;;;5091665;28;20189;-77
2023/01/28 06:08:01;;;;;;;14.83;13.90;;;6.20;27.90;;;;;;5091399;28;20436;-76
2023/01/28 06:10:26;;;;;;;14.63;13.63;;;6.20;28.00;;;;;;5091501;28;20175;-76
2023/01/28 06:12:52;;;;;;;14.47;13.60;;;6.30;27.70;;;;;;5091865;28;20257;-76
2023/01/28 06:15:17;;;;;;;14.13;13.23;;;6.30;27.60;;;;;;5093459;28;20202;-77
2023/01/28 06:17:43;;;;;;;14.10;13.30;;;6.30;27.50;;;;;;5090622;28;20540;-77
2023/01/28 06:20:09;;;;;;;14.10;13.30;;;6.20;27.50;;;;;;5090381;28;20178;-75
2023/01/28 06:22:35;;;;;;;14.20;13.40;;;6.20;27.60;;;;;;5091498;28;20261;-76
2023/01/28 06:25:00;;;;;;;14.10;13.30;;;6.20;27.50;;;;;;5089920;28;20515;-75
2023/01/28 06:27:26;;;;;;;15.33;14.43;;;6.20;27.30;;;;;;5091686;28;20289;-76
2023/01/28 06:29:52;;;;;;;14.20;13.40;;;6.20;27.80;;;;;;5090351;28;20214;-77
2023/01/28 06:32:17;;;;;;;13.90;13.10;;;6.10;27.70;;;;;;5089933;28;20656;-77
2023/01/28 06:34:43;;;;;;;14.60;13.60;;;6.10;27.70;;;;;;5092592;28;20978;-76
2023/01/28 06:37:14;;;;;;;15.00;14.20;;;6.00;27.80;;;;;;5092868;28;20187;-77
2023/01/28 06:39:40;;;;;;;16.20;15.07;;;5.60;29.80;;;;;;5096887;28;20210;-75
2023/01/28 06:42:06;;;;;;;15.00;14.13;;;5.70;29.30;;;;;;5081326;28;20446;-77
2023/01/28 06:44:31;;;;;;;14.93;14.13;;;5.70;29.30;;;;;;5096093;28;20175;-76
2023/01/28 06:46:57;;;;;;;14.60;13.80;;;5.80;29.30;;;;;;5095121;28;20197;-76
2023/01/28 06:49:23;;;;;;;15.00;14.20;;;5.90;28.90;;;;;;5095929;28;20171;-80
2023/01/28 06:51:48;;;;;;;15.80;14.90;;;6.00;28.60;;;;;;5093473;28;20220;-78
2023/01/28 06:54:14;;;;;;;15.17;14.27;;;6.10;28.60;;;;;;5092097;28;20198;-78
2023/01/28 06:56:40;;;;;;;15.33;14.33;;;6.10;28.40;;;;;;5076838;28;20301;-78
2023/01/28 06:59:06;;;;;;;14.93;14.03;;;6.10;28.20;;;;;;5092546;28;20448;-77
2023/01/28 07:01:33;;;;;;;15.67;14.77;;;6.20;28.50;;;;;;5092561;28;20511;-77
2023/01/28 07:03:58;;;;;;;16.87;15.40;;;6.20;28.10;;;;;;5093574;28;20175;-77
2023/01/28 07:06:24;;;;;;;15.70;14.70;;;6.30;28.10;;;;;;5092861;28;20448;-79
2023/01/28 07:08:49;;;;;;;15.67;14.57;;;6.10;28.10;;;;;;5092407;28;20270;-75
2023/01/28 07:11:15;;;;;;;16.20;15.20;;;5.90;29.60;;;;;;5094473;28;20190;-79
2023/01/28 07:13:42;;;;;;;15.03;14.13;;;5.80;29.40;;;;;;5094788;28;20253;-79
2023/01/28 07:16:08;;;;;;;13.87;13.07;;;5.90;29.40;;;;;;5094457;28;20516;-78
2023/01/28 07:18:34;;;;;;;15.57;14.60;;;6.00;28.80;;;;;;5095470;28;20903;-78
2023/01/28 07:20:59;;;;;;;14.83;14.03;;;6.10;28.80;;;;;;5097665;28;20434;-78
2023/01/28 07:23:25;;;;;;;16.13;15.23;;;6.30;28.60;;;;;;5097324;28;20181;-78
2023/01/28 07:25:51;;;;;;;16.10;15.20;;;6.30;28.30;;;;;;5098384;28;20182;-78
2023/01/28 07:28:20;;;;;;;15.50;14.60;;;6.40;28.30;;;;;;5094685;28;20678;-76
2023/01/28 07:30:49;;;;;;;14.80;14.00;;;6.40;28.40;;;;;;5087003;28;20180;-76
2023/01/28 07:33:15;;;;;;;17.23;16.20;;;6.50;28.70;;;;;;5074126;28;20446;-76
2023/01/28 07:35:41;;;;;;;14.37;13.57;;;6.50;28.10;;;;;;5086402;28;20459;-76
2023/01/28 07:38:07;;;;;;;15.00;14.20;;;6.50;27.90;;;;;;5092024;28;20425;-76
2023/01/28 07:40:32;;;;;;;15.37;14.33;;;6.50;28.00;;;;;;5092499;28;20170;-76
2023/01/28 07:42:58;;;;;;;15.90;14.90;;;6.50;27.80;;;;;;5091506;28;20167;-76
2023/01/28 07:45:24;;;;;;;16.07;15.17;;;6.40;28.30;;;;;;5092496;28;20174;-76
2023/01/28 07:48:04;;;;;;;15.93;15.03;;;6.40;28.10;;;;;;5093251;28;20197;-75
2023/01/28 07:50:32;;;;;;;15.33;14.53;;;6.40;28.10;;;;;;5094090;28;20559;-77
2023/01/28 07:52:58;;;;;;;17.27;16.17;;;6.40;28.00;;;;;;5092872;28;20421;-76
2023/01/28 07:55:23;;;;;;;16.63;15.60;;;6.40;28.30;;;;;;5093388;28;20464;-77
2023/01/28 07:57:55;;;;;;;15.97;15.00;;;6.30;28.00;;;;;;5093226;28;20513;-76
2023/01/28 08:00:22;;;;;;;16.50;15.50;;;6.10;29.50;;;;;;5094187;28;20179;-77
2023/01/28 08:02:48;;;;;;;17.13;16.13;;;6.10;29.50;;;;;;5092827;28;20405;-77
2023/01/28 08:05:19;;;;;;;17.77;16.67;;;6.20;28.90;;;;;;5094326;28;20457;-76
2023/01/28 08:07:47;;;;;;;16.77;15.80;;;6.30;28.60;;;;;;5093967;28;20425;-76
2023/01/28 08:10:13;;;;;;;17.53;16.30;;;6.30;28.40;;;;;;5092974;28;20467;-76
2023/01/28 08:12:39;;;;;;;16.30;15.40;;;6.30;28.40;;;;;;5093027;28;20409;-76
2023/01/28 08:15:06;;;;;;;16.40;15.40;;;6.30;28.50;;;;;;5092761;28;20456;-75
2023/01/28 08:17:32;;;;;;;16.30;15.30;;;6.20;28.40;;;;;;5093764;28;20413;-76
2023/01/28 08:19:57;;;;;;;17.37;16.27;;;6.20;28.70;;;;;;5093129;28;20432;-76
2023/01/28 08:22:25;;;;;;;16.17;15.17;;;6.20;28.80;;;;;;5093906;28;20171;-76
2023/01/28 08:24:50;;;;;;;17.30;16.20;;;6.30;28.70;;;;;;5094037;28;20588;-77
2023/01/28 08:27:16;;;;;;;16.13;15.03;;;6.30;28.40;;;;;;5093686;28;20436;-76
2023/01/28 08:29:42;;;;;;;17.13;16.03;;;6.30;28.50;;;;;;5093511;28;20204;-76
2023/01/28 08:32:08;;;;;;;15.10;14.20;;;6.40;28.60;;;;;;5093712;28;20181;-76
2023/01/28 08:34:34;;;;;;;16.60;15.50;;;6.30;28.50;;;;;;5092664;28;20494;-76
2023/01/28 08:36:59;;;;;;;17.37;16.27;;;6.30;28.50;;;;;;5093827;28;20450;-77
2023/01/28 08:39:25;;;;;;;17.03;15.93;;;6.30;28.40;;;;;;5092429;28;20185;-77
2023/01/28 08:41:50;;;;;;;17.53;16.43;;;6.30;28.60;;;;;;5093220;28;20174;-77
2023/01/28 08:44:16;;;;;;;16.43;15.33;;;6.20;28.60;;;;;;5093670;28;20637;-77
2023/01/28 08:46:41;;;;;;;16.83;15.80;;;6.30;28.40;;;;;;5093427;28;20202;-76
2023/01/28 08:49:07;;;;;;;16.20;15.23;;;6.20;28.70;;;;;;5086867;28;20607;-77
2023/01/28 08:51:32;;;;;;;17.30;16.10;;;6.20;28.90;;;;;;5084117;28;20433;-77
2023/01/28 08:53:59;;;;;;;17.23;16.07;;;6.00;29.50;;;;;;5082548;28;20194;-76
2023/01/28 08:56:24;;;;;;;18.40;17.20;;;5.80;29.30;;;;;;5089120;28;20218;-76
2023/01/28 08:58:50;;;;;;;17.07;15.97;;;5.80;30.40;;;;;;5084023;28;20489;-77
2023/01/28 09:01:16;;;;;;;17.17;15.97;;;5.90;30.20;;;;;;5085166;28;20215;-76
2023/01/28 09:03:41;;;;;;;17.00;15.90;;;6.00;30.20;;;;;;5090692;28;20186;-79
2023/01/28 09:06:07;;;;;;;17.43;16.33;;;6.10;30.40;;;;;;5076459;28;20184;-77
2023/01/28 09:08:32;;;;;;;18.57;17.40;;;6.30;29.60;;;;;;5076434;28;20186;-77
2023/01/28 09:10:59;;;;;;;18.20;16.90;;;6.40;28.70;;;;;;5077475;28;20309;-76
2023/01/28 09:13:25;;;;;;;18.30;17.10;;;6.40;28.20;;;;;;5084772;28;20905;-77
2023/01/28 09:15:51;;;;;;;18.33;17.03;;;6.20;29.00;;;;;;5083285;28;20950;-77
2023/01/28 09:18:17;;;;;;;18.60;17.20;;;6.30;28.80;;;;;;5087331;28;20459;-77
2023/01/28 09:20:43;;;;;;;17.83;16.63;;;6.50;28.40;;;;;;5083167;28;20181;-76
2023/01/28 09:23:09;;;;;;;18.70;17.50;;;6.40;28.10;;;;;;5088460;28;20425;-77
2023/01/28 09:25:35;;;;;;;18.83;17.43;;;6.20;28.50;;;;;;5090918;28;20424;-77
2023/01/28 09:28:01;;;;;;;18.03;16.90;;;6.00;29.40;;;;;;5092115;28;20479;-77
2023/01/28 09:30:27;;;;;;;19.60;18.30;;;6.20;28.80;;;;;;5094110;28;20833;-77
2023/01/28 09:32:54;;;;;;;21.90;20.00;;;6.30;28.50;;;;;;5082134;28;20279;-77
2023/01/28 09:35:20;;;;;;;20.00;18.63;;;6.20;28.30;;;;;;5092483;28;20614;-77
2023/01/28 09:37:47;;;;;;;19.67;18.27;;;6.20;29.00;;;;;;5093519;28;20429;-77
2023/01/28 09:40:35;;;;;;;17.97;16.87;;;6.20;28.70;;;;;;5096610;28;21049;-76
2023/01/28 09:43:06;;;;;;;19.80;18.50;;;6.30;28.50;;;;;;5092248;28;20891;-77
2023/01/28 09:45:38;;;;;;;20.03;18.77;;;6.20;27.90;;;;;;5094524;28;20408;-77
2023/01/28 09:48:09;;;;;;;18.50;17.30;;;6.20;28.70;;;;;;5093094;28;20428;-76
2023/01/28 09:50:37;;;;;;;18.47;17.10;;;6.30;28.40;;;;;;5092684;28;20775;-77
2023/01/28 09:53:22;;;;;;;27.80;25.33;;;6.40;28.20;;;;;;5091021;28;20478;-77
2023/01/28 09:56:01;;;;;;;23.97;22.00;;;6.40;28.20;;;;;;5091131;28;20456;-76
2023/01/28 09:58:27;;;;;;;19.37;17.93;;;6.40;27.70;;;;;;5091152;28;20443;-77
2023/01/28 10:01:19;;;;;;;19.83;18.47;;;6.20;28.60;;;;;;5092835;28;20405;-76
2023/01/28 10:03:53;;;;;;;20.17;18.87;;;6.30;28.30;;;;;;5068477;28;20211;-76
2023/01/28 10:06:52;;;;;;;19.27;17.90;;;6.30;28.40;;;;;;5090658;28;20791;-76
2023/01/28 10:09:40;;;;;;;20.10;18.73;;;6.30;28.50;;;;;;5091917;28;20474;-76
2023/01/28 10:12:32;;;;;;;19.53;18.27;;;6.30;28.50;;;;;;5092250;28;20496;-79
2023/01/28 10:15:37;;;;;;;19.30;18.00;;;6.50;28.10;;;;;;5090938;28;20448;-77
2023/01/28 10:18:10;;;;;;;19.47;18.13;;;6.50;27.70;;;;;;5092040;28;20416;-76
2023/01/28 10:20:45;;;;;;;19.97;18.60;;;6.50;27.30;;;;;;5092479;28;20396;-76
2023/01/28 10:23:28;;;;;;;19.67;18.17;;;6.60;27.30;;;;;;5090380;28;20405;-77
2023/01/28 10:25:57;;;;;;;19.10;17.90;;;6.60;27.30;;;;;;5092845;28;20409;-76
2023/01/28 10:28:26;;;;;;;18.47;17.27;;;6.50;27.20;;;;;;5092571;28;20430;-77
2023/01/28 10:30:52;;;;;;;18.27;16.97;;;6.60;27.10;;;;;;5091843;28;20789;-76
2023/01/28 10:33:27;;;;;;;19.30;17.93;;;6.60;27.00;;;;;;5091723;28;20401;-77
2023/01/28 10:35:54;;;;;;;19.37;17.97;;;6.60;26.80;;;;;;5093724;28;20459;-78
2023/01/28 10:38:22;;;;;;;20.13;18.77;;;6.60;26.70;;;;;;5088200;28;20483;-77
2023/01/28 10:40:48;;;;;;;20.03;18.70;;;6.60;26.90;;;;;;5072140;28;20517;-76
2023/01/28 10:43:25;;;;;;;19.53;18.03;;;6.60;27.00;;;;;;5075362;28;20426;-76
2023/01/28 10:46:09;;;;;;;19.30;18.00;;;6.50;27.00;;;;;;5092014;28;20394;-78
2023/01/28 10:48:42;;;;;;;19.60;17.90;;;6.50;27.00;;;;;;5089541;28;20420;-77
2023/01/28 10:51:08;;;;;;;19.03;17.70;;;6.60;27.00;;;;;;5090335;28;20424;-77
2023/01/28 10:53:36;;;;;;;19.73;18.33;;;6.60;27.00;;;;;;5091470;28;20428;-77
2023/01/28 10:56:03;;;;;;;21.07;19.67;;;6.60;26.70;;;;;;5094175;28;20245;-77
2023/01/28 10:58:33;;;;;;;19.20;18.00;;;6.50;27.10;;;;;;5094434;28;20934;-76
2023/01/28 11:01:00;;;;;;;19.77;18.53;;;6.50;27.80;;;;;;5094650;28;20404;-76
2023/01/28 11:03:28;;;;;;;19.20;17.90;;;6.60;27.10;;;;;;5095665;28;20412;-77
2023/01/28 11:05:54;;;;;;;19.50;18.20;;;6.70;26.80;;;;;;5100036;28;20424;-77
2023/01/28 11:08:23;;;;;;;19.03;17.73;;;6.70;26.60;;;;;;5115063;28;20440;-75
2023/01/28 11:10:50;;;;;;;20.50;19.03;;;6.70;27.70;;;;;;5117228;28;20426;-76
2023/01/28 11:13:24;;;;;;;19.50;18.30;;;6.70;26.80;;;;;;5120273;28;20435;-75
2023/01/28 11:15:52;;;;;;;19.70;18.40;;;6.80;26.80;;;;;;5100992;28;20569;-75
2023/01/28 11:18:27;;;;;;;19.37;18.00;;;6.70;26.60;;;;;;5085815;28;20445;-76
2023/01/28 11:20:59;;;;;;;19.30;18.00;;;6.70;27.00;;;;;;5078250;28;20436;-76
2023/01/28 11:23:28;;;;;;;17.43;16.33;;;6.70;27.10;;;;;;5077627;28;20440;-76
2023/01/28 11:26:21;;;;;;;18.67;17.27;;;6.70;27.10;;;;;;5087869;28;20949;-76
2023/01/28 11:28:47;;;;;;;19.90;18.50;;;6.60;26.90;;;;;;5061351;28;20412;-75
2023/01/28 11:31:17;;;;;;;19.70;18.17;;;6.70;26.80;;;;;;5087274;28;20479;-76
2023/01/28 11:33:53;;;;;;;18.77;17.07;;;6.70;26.90;;;;;;5095275;28;20924;-76
2023/01/28 11:36:22;;;;;;;18.53;17.33;;;6.50;27.20;;;;;;5092737;28;21069;-76
2023/01/28 11:38:54;;;;;;;19.00;17.70;;;6.50;27.70;;;;;;5079957;28;20429;-76
2023/01/28 11:41:38;;;;;;;19.70;18.03;;;6.50;27.50;;;;;;5090260;28;20419;-76
2023/01/28 11:44:22;;;;;;;17.73;16.53;;;6.60;27.00;;;;;;5090123;28;20501;-76
2023/01/28 11:47:09;;;;;;;19.20;17.80;;;6.60;26.80;;;;;;5100154;28;20438;-77
2023/01/28 11:49:48;;;;;;;18.70;17.40;;;6.60;26.90;;;;;;5088458;28;20432;-76
2023/01/28 11:52:37;;;;;;;19.13;17.83;;;6.60;26.70;;;;;;5094934;28;20425;-76
2023/01/28 11:55:21;;;;;;;20.07;18.63;;;6.60;26.90;;;;;;5093616;28;20465;-76
2023/01/28 11:58:02;;;;;;;19.10;17.80;;;6.70;27.20;;;;;;5086006;28;20519;-76
2023/01/28 12:00:37;;;;;;;19.77;18.40;;;6.70;27.00;;;;;;5084126;28;20404;-75
2023/01/28 12:03:35;;;;;;;20.23;18.73;;;6.50;27.10;;;;;;5106169;27;20455;-76
2023/01/28 12:06:33;;;;;;;20.77;19.37;;;6.50;27.50;;;;;;5089603;28;20931;-76
2023/01/28 12:09:32;;;;;;;21.50;20.00;;;6.40;27.30;;;;;;5032931;28;20421;-76
2023/01/28 12:12:11;;;;;;;22.03;20.37;;;6.40;27.70;;;;;;5084893;28;20501;-75
2023/01/28 12:14:51;;;;;;;19.73;18.33;;;6.50;27.50;;;;;;5094148;28;20842;-75
2023/01/28 12:17:46;;;;;;;20.17;18.77;;;6.50;27.50;;;;;;5090729;28;20429;-75
2023/01/28 12:20:37;;;;;;;20.07;18.63;;;6.60;28.10;;;;;;5085548;28;20413;-75
2023/01/28 12:23:12;;;;;;;20.57;19.07;;;6.70;27.60;;;;;;5085566;28;20417;-75
2023/01/28 12:26:07;;;;;;;21.83;20.03;;;6.70;27.30;;;;;;5082270;28;20408;-75
2023/01/28 12:28:48;;;;;;;20.27;18.70;;;6.70;27.20;;;;;;5085072;28;20406;-75
2023/01/28 12:31:41;;;;;;;20.77;19.20;;;6.60;27.20;;;;;;5088058;28;20927;-75
2023/01/28 12:34:40;;;;;;;20.07;18.60;;;6.50;27.20;;;;;;5081554;28;20444;-75
2023/01/28 12:37:12;;;;;;;20.30;18.80;;;6.50;27.10;;;;;;5090957;28;20811;-75
2023/01/28 12:40:05;;;;;;;18.87;17.47;;;6.50;27.20;;;;;;5088714;28;20435;-75
2023/01/28 12:42:47;;;;;;;20.13;18.53;;;6.40;27.40;;;;;;5081580;28;20407;-75
2023/01/28 12:45:22;;;;;;;21.53;19.80;;;6.40;27.80;;;;;;5099001;28;20499;-75
2023/01/28 12:47:54;;;;;;;20.53;18.97;;;6.50;27.80;;;;;;5102046;27;20532;-75
2023/01/28 12:50:30;;;;;;;20.77;19.07;;;6.60;27.70;;;;;;5082385;28;20428;-75
2023/01/28 12:53:16;;;;;;;19.90;18.30;;;6.50;27.90;;;;;;5089363;28;20472;-75
2023/01/28 12:56:07;;;;;;;19.50;18.10;;;6.50;28.10;;;;;;5084599;28;20461;-75
2023/01/28 12:58:46;;;;;;;22.87;21.10;;;6.50;27.60;;;;;;5087853;28;20930;-75
2023/01/28 13:01:24;;;;;;;21.70;20.10;;;6.50;27.70;;;;;;5085568;28;20420;-76
2023/01/28 13:04:02;;;;;;;19.57;18.20;;;6.50;27.60;;;;;;5088153;28;20431;-75
2023/01/28 13:06:28;;;;;;;19.10;17.60;;;6.50;27.70;;;;;;5074995;28;20464;-76
2023/01/28 13:09:00;;;;;;;20.60;19.10;;;6.50;28.30;;;;;;5081797;28;20502;-75
2023/01/28 13:11:34;;;;;;;17.67;16.40;;;6.40;28.00;;;;;;5081277;28;20199;-77
2023/01/28 13:14:02;;;;;;;16.63;15.50;;;6.40;28.10;;;;;;5077281;28;20429;-76
2023/01/28 13:16:28;;;;;;;16.90;15.70;;;6.50;28.40;;;;;;5075393;28;20460;-76
2023/01/28 13:19:05;;;;;;;18.23;16.77;;;6.50;28.70;;;;;;5076899;28;20428;-76
2023/01/28 13:21:34;;;;;;;17.23;16.13;;;6.50;29.20;;;;;;5082492;28;20184;-76
2023/01/28 13:24:08;;;;;;;18.70;17.43;;;6.50;29.70;;;;;;5078065;28;20483;-76
2023/01/28 13:26:45;;;;;;;15.53;14.63;;;6.60;29.80;;;;;;5084918;28;20440;-77
2023/01/28 13:29:13;;;;;;;14.70;13.60;;;6.60;29.40;;;;;;5091782;28;21162;-76